createdAt,value
2023-02-02T00:06:19.142Z,2.83
2023-02-02T00:21:09.155Z,3.23
2023-02-02T00:35:58.922Z,2.76
2023-02-02T00:50:49.718Z,2.93
2023-02-02T01:05:39.744Z,2.66
2023-02-02T01:20:30.142Z,2.51
2023-02-02T01:35:20.143Z,2.70
2023-02-02T01:50:10.521Z,2.63
2023-02-02T02:05:01.061Z,2.41
2023-02-02T02:20:21.343Z,2.38
2023-02-02T02:35:17.957Z,3.21
2023-02-02T02:50:11.515Z,2.99
2023-02-02T03:05:01.792Z,2.54
2023-02-02T03:19:52.723Z,2.79
2023-02-02T03:34:43.833Z,2.84
2023-02-02T03:49:34.729Z,3.48
2023-02-02T04:04:24.914Z,3.18
2023-02-02T04:19:15.273Z,2.99
2023-02-02T04:34:05.844Z,3.18
2023-02-02T04:48:56.556Z,2.82
2023-02-02T05:03:47.326Z,3.08
2023-02-02T05:18:37.084Z,2.68
2023-02-02T05:33:27.846Z,2.94
2023-02-02T05:48:18.161Z,3.64
2023-02-02T06:03:09.142Z,3.17
2023-02-02T06:17:59.277Z,3.08
2023-02-02T06:32:49.661Z,3.68
2023-02-02T06:47:40.357Z,3.51
2023-02-02T07:02:30.292Z,3.99
2023-02-02T07:17:20.562Z,4.07
2023-02-02T07:32:10.569Z,4.18
2023-02-02T07:47:01.645Z,3.27
2023-02-02T08:01:52.203Z,4.21
2023-02-02T08:16:42.833Z,3.59
2023-02-02T08:31:36.274Z,4.30
2023-02-02T08:46:30.411Z,4.07
2023-02-02T09:01:26.744Z,4.44
2023-02-02T09:16:21.351Z,4.91
2023-02-02T09:31:11.799Z,4.56
2023-02-02T09:46:14.600Z,3.69
2023-02-02T10:01:14.680Z,3.59
2023-02-02T10:16:13.134Z,3.72
2023-02-02T10:31:06.493Z,3.28
2023-02-02T10:45:57.896Z,2.88
2023-02-02T11:00:51.396Z,4.11
2023-02-02T11:15:45.194Z,3.12
2023-02-02T11:30:34.832Z,2.86
2023-02-02T11:45:37.434Z,3.89
2023-02-02T12:00:32.472Z,2.40
2023-02-02T12:15:47.794Z,3.24
2023-02-02T12:30:56.500Z,2.98
2023-02-02T12:45:51.801Z,2.89
2023-02-02T13:00:54.491Z,3.19
2023-02-02T13:15:49.660Z,3.02
2023-02-02T13:30:41.066Z,3.32
2023-02-02T13:45:43.642Z,3.22
2023-02-02T14:00:57.988Z,2.93
2023-02-02T14:15:41.434Z,2.40
2023-02-02T14:30:35.160Z,2.36
2023-02-02T14:45:40.608Z,2.38
2023-02-02T15:00:34.290Z,2.60
2023-02-02T15:15:27.243Z,2.30
2023-02-02T15:30:20.152Z,2.32
2023-02-02T15:45:28.298Z,1.92
2023-02-02T16:00:30.760Z,1.76
2023-02-02T16:15:24.833Z,1.50
2023-02-02T16:30:29.348Z,1.83
2023-02-02T16:45:34.125Z,1.64
2023-02-02T17:00:27.934Z,2.30
2023-02-02T17:15:18.441Z,1.43
2023-02-02T17:30:15.092Z,1.80
2023-02-02T17:45:09.404Z,1.62
2023-02-02T18:00:01.247Z,2.01
2023-02-02T18:29:42.907Z,1.71
2023-02-02T18:44:33.895Z,2.13
2023-02-02T18:59:24.593Z,2.04
2023-02-02T19:14:17.933Z,2.19
2023-02-02T19:44:24.258Z,2.69
2023-02-02T19:59:14.282Z,2.19
2023-02-02T20:14:18.531Z,2.37
2023-02-02T20:29:13.980Z,1.80
2023-02-02T20:44:07.004Z,1.78
2023-02-02T20:58:58.111Z,1.78
2023-02-02T21:13:47.967Z,1.68
2023-02-02T21:28:38.492Z,2.07
2023-02-02T21:43:28.267Z,2.67
2023-02-02T21:58:27.692Z,2.31
2023-02-02T22:13:23.864Z,2.37
2023-02-02T22:28:23.038Z,2.51
2023-02-02T22:43:17.164Z,2.71
2023-02-02T22:58:08.076Z,2.34
2023-02-02T23:12:58.912Z,1.98
2023-02-02T23:27:49.718Z,1.90
2023-02-02T23:42:40.176Z,1.91
2023-02-02T23:57:31.039Z,2.31
